This is the latest recevied weather packets stored in our database for station/object EA4BCR. If no packets are shown the sender has not sent any weather packets the latest 10 day(s).
| Time | Temp. | Humidity | Pressure | Rain* | Wind** | Luminosity | Snow |
|---|---|---|---|---|---|---|---|
| 1787449810 | 23.89° C | 88% | 1014.3 hPa | - | - | - | - |
| 1787449210 | 23.33° C | 88% | 1014.5 hPa | - | - | - | - |
| 1787448610 | 23.89° C | 85% | 1014.3 hPa | - | - | - | - |
| 1787448010 | 23.89° C | 86% | 1014.5 hPa | - | - | - | - |
| 1787447410 | 23.33° C | 91% | 1014.7 hPa | - | - | - | - |
| 1787446810 | 23.89° C | 90% | 1014.6 hPa | - | - | - | - |
| 1787446210 | 23.89° C | 86% | 1014.6 hPa | - | - | - | - |
| 1787445610 | 23.89° C | 89% | 1014.8 hPa | - | - | - | - |
| 1787445010 | 23.89° C | 87% | 1014.7 hPa | - | - | - | - |
| 1787444410 | 24.44° C | 83% | 1014.7 hPa | - | - | - | - |
| 1787443810 | 23.89° C | 88% | 1014.9 hPa | - | - | - | - |
| 1787443210 | 23.89° C | 86% | 1014.7 hPa | - | - | - | - |
| 1787442610 | 24.44° C | 81% | 1014.6 hPa | - | - | - | - |
| 1787442009 | 23.89° C | 88% | 1014.9 hPa | - | - | - | - |
| 1787441409 | 23.89° C | 86% | 1014.7 hPa | - | - | - | - |
| 1787440809 | 23.33° C | 90% | 1015 hPa | - | - | - | - |
| 1787440210 | 25° C | 79% | 1014.5 hPa | - | - | - | - |
| 1787439609 | 24.44° C | 80% | 1014.5 hPa | - | - | - | - |
| 1787439011 | 24.44° C | 83% | 1014.7 hPa | - | - | - | - |
| 1787438410 | 24.44° C | 81% | 1014.6 hPa | - | - | - | - |
| 1787437809 | 24.44° C | 80% | 1014.6 hPa | - | - | - | - |
| 1787437210 | 24.44° C | 80% | 1014.6 hPa | - | - | - | - |
| 1787436609 | 24.44° C | 77% | 1014.5 hPa | - | - | - | - |
| 1787436009 | 24.44° C | 77% | 1014.4 hPa | - | - | - | - |
| 1787435409 | 25° C | 73% | 1014.2 hPa | - | - | - | - |
* Rain since midnight (hover to see other rain measurements)
** Current wind speed in m/s (hover to see current wind gust speed)